sensor_id;sensor_type;location;lat;lon;timestamp;P1;P2;P0
57884;PMS5003;43703;51.060;-0.086;2024-02-26T00:00:43;6;6;
57884;PMS5003;43703;51.060;-0.086;2024-02-26T00:03:08;7;6;
57884;PMS5003;43703;51.060;-0.086;2024-02-26T00:05:34;6;6;
57884;PMS5003;43703;51.060;-0.086;2024-02-26T00:07:59;6;6;
57884;PMS5003;43703;51.060;-0.086;2024-02-26T00:10:24;7;7;
57884;PMS5003;43703;51.060;-0.086;2024-02-26T00:12:49;8;8;
57884;PMS5003;43703;51.060;-0.086;2024-02-26T00:15:14;7;6;
57884;PMS5003;43703;51.060;-0.086;2024-02-26T00:17:39;9;9;
57884;PMS5003;43703;51.060;-0.086;2024-02-26T00:20:05;8;6;
57884;PMS5003;43703;51.060;-0.086;2024-02-26T00:22:29;9;9;
57884;PMS5003;43703;51.060;-0.086;2024-02-26T00:24:54;10;10;
57884;PMS5003;43703;51.060;-0.086;2024-02-26T00:27:19;8;8;
57884;PMS5003;43703;51.060;-0.086;2024-02-26T00:29:44;8;8;
57884;PMS5003;43703;51.060;-0.086;2024-02-26T00:32:09;9;9;
57884;PMS5003;43703;51.060;-0.086;2024-02-26T00:34:35;11;9;
57884;PMS5003;43703;51.060;-0.086;2024-02-26T00:37:00;10;9;
57884;PMS5003;43703;51.060;-0.086;2024-02-26T00:39:25;10;9;
57884;PMS5003;43703;51.060;-0.086;2024-02-26T00:41:50;12;12;
57884;PMS5003;43703;51.060;-0.086;2024-02-26T00:44:15;15;14;
57884;PMS5003;43703;51.060;-0.086;2024-02-26T00:46:40;10;10;
57884;PMS5003;43703;51.060;-0.086;2024-02-26T00:49:05;11;11;
57884;PMS5003;43703;51.060;-0.086;2024-02-26T00:51:30;13;11;
57884;PMS5003;43703;51.060;-0.086;2024-02-26T00:53:55;9;9;
57884;PMS5003;43703;51.060;-0.086;2024-02-26T00:56:21;12;12;
57884;PMS5003;43703;51.060;-0.086;2024-02-26T00:58:45;16;12;
57884;PMS5003;43703;51.060;-0.086;2024-02-26T01:01:11;13;12;
57884;PMS5003;43703;51.060;-0.086;2024-02-26T01:03:36;14;14;
57884;PMS5003;43703;51.060;-0.086;2024-02-26T01:06:02;17;16;
57884;PMS5003;43703;51.060;-0.086;2024-02-26T01:08:27;18;16;
57884;PMS5003;43703;51.060;-0.086;2024-02-26T01:10:53;16;14;
57884;PMS5003;43703;51.060;-0.086;2024-02-26T01:13:18;17;16;
57884;PMS5003;43703;51.060;-0.086;2024-02-26T01:15:43;13;11;
57884;PMS5003;43703;51.060;-0.086;2024-02-26T01:18:09;11;10;
57884;PMS5003;43703;51.060;-0.086;2024-02-26T01:20:34;15;14;
57884;PMS5003;43703;51.060;-0.086;2024-02-26T01:22:59;14;14;
57884;PMS5003;43703;51.060;-0.086;2024-02-26T01:25:25;14;14;
57884;PMS5003;43703;51.060;-0.086;2024-02-26T01:27:50;15;14;
57884;PMS5003;43703;51.060;-0.086;2024-02-26T01:30:15;15;15;
57884;PMS5003;43703;51.060;-0.086;2024-02-26T01:32:40;19;17;
57884;PMS5003;43703;51.060;-0.086;2024-02-26T01:35:05;19;17;
57884;PMS5003;43703;51.060;-0.086;2024-02-26T01:37:30;22;19;
57884;PMS5003;43703;51.060;-0.086;2024-02-26T01:39:56;24;21;
57884;PMS5003;43703;51.060;-0.086;2024-02-26T01:42:21;25;25;
57884;PMS5003;43703;51.060;-0.086;2024-02-26T01:44:46;22;21;
57884;PMS5003;43703;51.060;-0.086;2024-02-26T01:47:12;24;20;
57884;PMS5003;43703;51.060;-0.086;2024-02-26T01:49:37;21;17;
57884;PMS5003;43703;51.060;-0.086;2024-02-26T01:52:03;21;20;
57884;PMS5003;43703;51.060;-0.086;2024-02-26T01:54:28;25;21;
57884;PMS5003;43703;51.060;-0.086;2024-02-26T01:56:54;25;24;
57884;PMS5003;43703;51.060;-0.086;2024-02-26T01:59:19;20;19;
57884;PMS5003;43703;51.060;-0.086;2024-02-26T02:01:44;28;24;
57884;PMS5003;43703;51.060;-0.086;2024-02-26T02:04:09;20;19;
57884;PMS5003;43703;51.060;-0.086;2024-02-26T02:06:34;22;22;
57884;PMS5003;43703;51.060;-0.086;2024-02-26T02:09:00;21;19;
57884;PMS5003;43703;51.060;-0.086;2024-02-26T02:11:25;24;21;
57884;PMS5003;43703;51.060;-0.086;2024-02-26T02:13:51;21;20;
57884;PMS5003;43703;51.060;-0.086;2024-02-26T02:16:17;21;16;
57884;PMS5003;43703;51.060;-0.086;2024-02-26T02:18:42;19;18;
57884;PMS5003;43703;51.060;-0.086;2024-02-26T02:21:08;22;19;
57884;PMS5003;43703;51.060;-0.086;2024-02-26T02:23:33;21;21;
57884;PMS5003;43703;51.060;-0.086;2024-02-26T02:25:59;21;21;
57884;PMS5003;43703;51.060;-0.086;2024-02-26T02:28:25;17;17;
57884;PMS5003;43703;51.060;-0.086;2024-02-26T02:30:49;20;19;
57884;PMS5003;43703;51.060;-0.086;2024-02-26T02:33:15;20;17;
57884;PMS5003;43703;51.060;-0.086;2024-02-26T02:35:40;21;19;
57884;PMS5003;43703;51.060;-0.086;2024-02-26T02:38:05;22;19;
57884;PMS5003;43703;51.060;-0.086;2024-02-26T02:40:30;23;21;
57884;PMS5003;43703;51.060;-0.086;2024-02-26T02:42:56;19;18;
57884;PMS5003;43703;51.060;-0.086;2024-02-26T02:45:21;24;19;
57884;PMS5003;43703;51.060;-0.086;2024-02-26T02:47:46;25;22;
57884;PMS5003;43703;51.060;-0.086;2024-02-26T02:50:12;21;18;
57884;PMS5003;43703;51.060;-0.086;2024-02-26T02:52:37;23;20;
57884;PMS5003;43703;51.060;-0.086;2024-02-26T02:55:03;20;20;
57884;PMS5003;43703;51.060;-0.086;2024-02-26T02:57:28;24;19;
57884;PMS5003;43703;51.060;-0.086;2024-02-26T02:59:53;22;21;
57884;PMS5003;43703;51.060;-0.086;2024-02-26T03:02:19;14;14;
57884;PMS5003;43703;51.060;-0.086;2024-02-26T03:04:45;19;17;
57884;PMS5003;43703;51.060;-0.086;2024-02-26T03:07:10;22;19;
57884;PMS5003;43703;51.060;-0.086;2024-02-26T03:09:36;17;17;
57884;PMS5003;43703;51.060;-0.086;2024-02-26T03:12:01;19;16;
57884;PMS5003;43703;51.060;-0.086;2024-02-26T03:14:27;25;23;
57884;PMS5003;43703;51.060;-0.086;2024-02-26T03:16:53;21;21;
57884;PMS5003;43703;51.060;-0.086;2024-02-26T03:19:18;20;18;
57884;PMS5003;43703;51.060;-0.086;2024-02-26T03:21:44;19;19;
57884;PMS5003;43703;51.060;-0.086;2024-02-26T03:24:09;22;21;
57884;PMS5003;43703;51.060;-0.086;2024-02-26T03:26:35;22;20;
57884;PMS5003;43703;51.060;-0.086;2024-02-26T03:29:00;22;22;
57884;PMS5003;43703;51.060;-0.086;2024-02-26T03:31:26;19;17;
57884;PMS5003;43703;51.060;-0.086;2024-02-26T03:33:51;19;18;
57884;PMS5003;43703;51.060;-0.086;2024-02-26T03:36:16;24;20;
57884;PMS5003;43703;51.060;-0.086;2024-02-26T03:38:42;18;16;
57884;PMS5003;43703;51.060;-0.086;2024-02-26T03:41:07;16;15;
57884;PMS5003;43703;51.060;-0.086;2024-02-26T03:43:32;19;19;
57884;PMS5003;43703;51.060;-0.086;2024-02-26T03:45:58;18;18;
57884;PMS5003;43703;51.060;-0.086;2024-02-26T03:48:24;24;19;
57884;PMS5003;43703;51.060;-0.086;2024-02-26T03:50:49;21;20;
57884;PMS5003;43703;51.060;-0.086;2024-02-26T03:53:14;17;17;
57884;PMS5003;43703;51.060;-0.086;2024-02-26T03:55:39;17;17;
57884;PMS5003;43703;51.060;-0.086;2024-02-26T03:58:04;19;18;
57884;PMS5003;43703;51.060;-0.086;2024-02-26T04:00:29;18;18;
57884;PMS5003;43703;51.060;-0.086;2024-02-26T04:02:55;20;17;
57884;PMS5003;43703;51.060;-0.086;2024-02-26T04:05:20;17;16;
57884;PMS5003;43703;51.060;-0.086;2024-02-26T04:07:46;18;18;
57884;PMS5003;43703;51.060;-0.086;2024-02-26T04:10:11;20;19;
57884;PMS5003;43703;51.060;-0.086;2024-02-26T04:12:38;17;17;
57884;PMS5003;43703;51.060;-0.086;2024-02-26T04:15:03;20;18;
57884;PMS5003;43703;51.060;-0.086;2024-02-26T04:17:27;16;16;
57884;PMS5003;43703;51.060;-0.086;2024-02-26T04:19:52;17;17;
57884;PMS5003;43703;51.060;-0.086;2024-02-26T04:22:17;20;17;
57884;PMS5003;43703;51.060;-0.086;2024-02-26T04:24:43;15;12;
57884;PMS5003;43703;51.060;-0.086;2024-02-26T04:27:08;18;16;
57884;PMS5003;43703;51.060;-0.086;2024-02-26T04:29:33;15;15;
57884;PMS5003;43703;51.060;-0.086;2024-02-26T04:31:58;19;18;
57884;PMS5003;43703;51.060;-0.086;2024-02-26T04:34:24;20;16;
57884;PMS5003;43703;51.060;-0.086;2024-02-26T04:36:49;18;18;
57884;PMS5003;43703;51.060;-0.086;2024-02-26T04:39:15;15;14;
57884;PMS5003;43703;51.060;-0.086;2024-02-26T04:41:40;18;17;
57884;PMS5003;43703;51.060;-0.086;2024-02-26T04:44:05;18;18;
57884;PMS5003;43703;51.060;-0.086;2024-02-26T04:46:30;17;16;
57884;PMS5003;43703;51.060;-0.086;2024-02-26T04:48:55;23;20;
57884;PMS5003;43703;51.060;-0.086;2024-02-26T04:51:21;18;16;
57884;PMS5003;43703;51.060;-0.086;2024-02-26T04:53:46;19;19;
57884;PMS5003;43703;51.060;-0.086;2024-02-26T04:56:12;20;19;
57884;PMS5003;43703;51.060;-0.086;2024-02-26T04:58:37;17;16;
57884;PMS5003;43703;51.060;-0.086;2024-02-26T05:01:02;18;17;
57884;PMS5003;43703;51.060;-0.086;2024-02-26T05:03:27;18;18;
57884;PMS5003;43703;51.060;-0.086;2024-02-26T05:05:52;18;15;
57884;PMS5003;43703;51.060;-0.086;2024-02-26T05:08:18;18;16;
57884;PMS5003;43703;51.060;-0.086;2024-02-26T05:10:44;17;17;
57884;PMS5003;43703;51.060;-0.086;2024-02-26T05:13:09;18;17;
57884;PMS5003;43703;51.060;-0.086;2024-02-26T05:15:34;18;13;
57884;PMS5003;43703;51.060;-0.086;2024-02-26T05:17:59;13;13;
57884;PMS5003;43703;51.060;-0.086;2024-02-26T05:20:24;24;17;
57884;PMS5003;43703;51.060;-0.086;2024-02-26T05:22:50;17;16;
57884;PMS5003;43703;51.060;-0.086;2024-02-26T05:25:16;15;15;
57884;PMS5003;43703;51.060;-0.086;2024-02-26T05:27:42;15;14;
57884;PMS5003;43703;51.060;-0.086;2024-02-26T05:30:07;15;15;
57884;PMS5003;43703;51.060;-0.086;2024-02-26T05:32:32;17;16;
57884;PMS5003;43703;51.060;-0.086;2024-02-26T05:34:57;13;13;
57884;PMS5003;43703;51.060;-0.086;2024-02-26T05:37:23;12;12;
57884;PMS5003;43703;51.060;-0.086;2024-02-26T05:39:48;17;14;
57884;PMS5003;43703;51.060;-0.086;2024-02-26T05:42:14;19;16;
57884;PMS5003;43703;51.060;-0.086;2024-02-26T05:44:39;14;10;
57884;PMS5003;43703;51.060;-0.086;2024-02-26T05:47:04;17;17;
57884;PMS5003;43703;51.060;-0.086;2024-02-26T05:49:30;14;14;
57884;PMS5003;43703;51.060;-0.086;2024-02-26T05:51:55;13;13;
57884;PMS5003;43703;51.060;-0.086;2024-02-26T05:54:20;14;13;
57884;PMS5003;43703;51.060;-0.086;2024-02-26T05:56:46;12;11;
57884;PMS5003;43703;51.060;-0.086;2024-02-26T05:59:11;16;15;
57884;PMS5003;43703;51.060;-0.086;2024-02-26T06:01:36;11;11;
57884;PMS5003;43703;51.060;-0.086;2024-02-26T06:04:02;14;12;
57884;PMS5003;43703;51.060;-0.086;2024-02-26T06:06:28;11;11;
57884;PMS5003;43703;51.060;-0.086;2024-02-26T06:08:53;10;8;
57884;PMS5003;43703;51.060;-0.086;2024-02-26T06:11:18;11;11;
57884;PMS5003;43703;51.060;-0.086;2024-02-26T06:13:43;13;12;
57884;PMS5003;43703;51.060;-0.086;2024-02-26T06:16:08;11;11;
57884;PMS5003;43703;51.060;-0.086;2024-02-26T06:18:33;9;8;
57884;PMS5003;43703;51.060;-0.086;2024-02-26T06:20:58;7;7;
57884;PMS5003;43703;51.060;-0.086;2024-02-26T06:23:23;8;8;
57884;PMS5003;43703;51.060;-0.086;2024-02-26T06:25:48;12;9;
57884;PMS5003;43703;51.060;-0.086;2024-02-26T06:28:14;9;7;
57884;PMS5003;43703;51.060;-0.086;2024-02-26T06:30:39;10;10;
57884;PMS5003;43703;51.060;-0.086;2024-02-26T06:33:04;10;9;
57884;PMS5003;43703;51.060;-0.086;2024-02-26T06:35:30;10;10;
57884;PMS5003;43703;51.060;-0.086;2024-02-26T06:37:55;8;7;
57884;PMS5003;43703;51.060;-0.086;2024-02-26T06:40:20;9;8;
57884;PMS5003;43703;51.060;-0.086;2024-02-26T06:42:45;9;9;
57884;PMS5003;43703;51.060;-0.086;2024-02-26T06:45:10;9;8;
57884;PMS5003;43703;51.060;-0.086;2024-02-26T06:47:35;7;7;
57884;PMS5003;43703;51.060;-0.086;2024-02-26T06:50:00;8;7;
57884;PMS5003;43703;51.060;-0.086;2024-02-26T06:52:25;7;6;
57884;PMS5003;43703;51.060;-0.086;2024-02-26T06:54:50;9;9;
57884;PMS5003;43703;51.060;-0.086;2024-02-26T06:57:15;9;7;
57884;PMS5003;43703;51.060;-0.086;2024-02-26T06:59:40;8;8;
57884;PMS5003;43703;51.060;-0.086;2024-02-26T07:02:05;8;8;
57884;PMS5003;43703;51.060;-0.086;2024-02-26T07:04:30;8;6;
57884;PMS5003;43703;51.060;-0.086;2024-02-26T07:06:55;10;10;
57884;PMS5003;43703;51.060;-0.086;2024-02-26T07:09:20;8;8;
57884;PMS5003;43703;51.060;-0.086;2024-02-26T07:11:45;5;5;
57884;PMS5003;43703;51.060;-0.086;2024-02-26T07:14:11;7;7;
57884;PMS5003;43703;51.060;-0.086;2024-02-26T07:16:35;8;8;
57884;PMS5003;43703;51.060;-0.086;2024-02-26T07:19:00;4;4;
57884;PMS5003;43703;51.060;-0.086;2024-02-26T07:21:25;5;5;
57884;PMS5003;43703;51.060;-0.086;2024-02-26T07:23:50;4;4;
57884;PMS5003;43703;51.060;-0.086;2024-02-26T07:26:15;5;5;
57884;PMS5003;43703;51.060;-0.086;2024-02-26T07:28:41;7;6;
57884;PMS5003;43703;51.060;-0.086;2024-02-26T07:31:06;6;6;
57884;PMS5003;43703;51.060;-0.086;2024-02-26T07:33:31;5;5;
57884;PMS5003;43703;51.060;-0.086;2024-02-26T07:35:56;7;6;
57884;PMS5003;43703;51.060;-0.086;2024-02-26T07:38:22;5;5;
57884;PMS5003;43703;51.060;-0.086;2024-02-26T07:40:47;7;6;
57884;PMS5003;43703;51.060;-0.086;2024-02-26T07:43:12;5;5;
57884;PMS5003;43703;51.060;-0.086;2024-02-26T07:45:37;5;5;
57884;PMS5003;43703;51.060;-0.086;2024-02-26T07:48:02;5;5;
57884;PMS5003;43703;51.060;-0.086;2024-02-26T07:50:27;4;4;
57884;PMS5003;43703;51.060;-0.086;2024-02-26T07:52:52;6;6;
57884;PMS5003;43703;51.060;-0.086;2024-02-26T07:55:17;5;5;
57884;PMS5003;43703;51.060;-0.086;2024-02-26T07:57:42;6;5;
57884;PMS5003;43703;51.060;-0.086;2024-02-26T08:00:08;5;5;
57884;PMS5003;43703;51.060;-0.086;2024-02-26T08:02:32;5;4;
57884;PMS5003;43703;51.060;-0.086;2024-02-26T08:04:57;4;4;
57884;PMS5003;43703;51.060;-0.086;2024-02-26T08:07:22;6;4;
57884;PMS5003;43703;51.060;-0.086;2024-02-26T08:09:47;5;5;
57884;PMS5003;43703;51.060;-0.086;2024-02-26T08:12:12;1;1;
57884;PMS5003;43703;51.060;-0.086;2024-02-26T08:14:38;6;5;
57884;PMS5003;43703;51.060;-0.086;2024-02-26T08:17:03;6;4;
57884;PMS5003;43703;51.060;-0.086;2024-02-26T08:19:28;4;3;
57884;PMS5003;43703;51.060;-0.086;2024-02-26T08:21:53;3;3;
57884;PMS5003;43703;51.060;-0.086;2024-02-26T08:24:18;5;5;
57884;PMS5003;43703;51.060;-0.086;2024-02-26T08:26:43;3;3;
57884;PMS5003;43703;51.060;-0.086;2024-02-26T08:29:08;4;4;
57884;PMS5003;43703;51.060;-0.086;2024-02-26T08:31:33;3;3;
57884;PMS5003;43703;51.060;-0.086;2024-02-26T08:33:58;7;7;
57884;PMS5003;43703;51.060;-0.086;2024-02-26T08:36:23;4;4;
57884;PMS5003;43703;51.060;-0.086;2024-02-26T08:38:48;4;4;
57884;PMS5003;43703;51.060;-0.086;2024-02-26T08:41:13;4;4;
57884;PMS5003;43703;51.060;-0.086;2024-02-26T08:43:38;5;5;
57884;PMS5003;43703;51.060;-0.086;2024-02-26T08:46:08;4;4;
57884;PMS5003;43703;51.060;-0.086;2024-02-26T08:48:29;7;6;
57884;PMS5003;43703;51.060;-0.086;2024-02-26T08:50:54;9;8;
57884;PMS5003;43703;51.060;-0.086;2024-02-26T08:53:20;5;4;
57884;PMS5003;43703;51.060;-0.086;2024-02-26T08:55:45;4;4;
57884;PMS5003;43703;51.060;-0.086;2024-02-26T08:58:10;8;6;
57884;PMS5003;43703;51.060;-0.086;2024-02-26T09:00:35;5;5;
57884;PMS5003;43703;51.060;-0.086;2024-02-26T09:03:00;5;5;
57884;PMS5003;43703;51.060;-0.086;2024-02-26T09:05:25;5;4;
57884;PMS5003;43703;51.060;-0.086;2024-02-26T09:07:50;2;2;
57884;PMS5003;43703;51.060;-0.086;2024-02-26T09:10:15;5;5;
57884;PMS5003;43703;51.060;-0.086;2024-02-26T09:12:40;3;3;
57884;PMS5003;43703;51.060;-0.086;2024-02-26T09:15:05;4;4;
57884;PMS5003;43703;51.060;-0.086;2024-02-26T09:17:30;7;7;
57884;PMS5003;43703;51.060;-0.086;2024-02-26T09:19:55;4;4;
57884;PMS5003;43703;51.060;-0.086;2024-02-26T09:22:20;3;3;
57884;PMS5003;43703;51.060;-0.086;2024-02-26T09:24:45;3;3;
57884;PMS5003;43703;51.060;-0.086;2024-02-26T09:27:10;3;3;
57884;PMS5003;43703;51.060;-0.086;2024-02-26T09:29:35;3;3;
57884;PMS5003;43703;51.060;-0.086;2024-02-26T09:32:00;3;3;
57884;PMS5003;43703;51.060;-0.086;2024-02-26T09:34:25;3;2;
57884;PMS5003;43703;51.060;-0.086;2024-02-26T09:36:50;5;4;
57884;PMS5003;43703;51.060;-0.086;2024-02-26T09:39:15;3;3;
57884;PMS5003;43703;51.060;-0.086;2024-02-26T09:41:40;4;4;
57884;PMS5003;43703;51.060;-0.086;2024-02-26T09:44:05;3;3;
57884;PMS5003;43703;51.060;-0.086;2024-02-26T09:46:30;5;3;
57884;PMS5003;43703;51.060;-0.086;2024-02-26T09:48:55;4;3;
57884;PMS5003;43703;51.060;-0.086;2024-02-26T09:51:20;5;4;
57884;PMS5003;43703;51.060;-0.086;2024-02-26T09:53:46;6;4;
57884;PMS5003;43703;51.060;-0.086;2024-02-26T09:56:11;4;4;
57884;PMS5003;43703;51.060;-0.086;2024-02-26T09:58:36;5;3;
57884;PMS5003;43703;51.060;-0.086;2024-02-26T10:01:02;3;3;
57884;PMS5003;43703;51.060;-0.086;2024-02-26T10:03:28;6;4;
57884;PMS5003;43703;51.060;-0.086;2024-02-26T10:05:51;5;3;
57884;PMS5003;43703;51.060;-0.086;2024-02-26T10:08:16;5;4;
57884;PMS5003;43703;51.060;-0.086;2024-02-26T10:10:41;3;3;
57884;PMS5003;43703;51.060;-0.086;2024-02-26T10:13:06;3;3;
57884;PMS5003;43703;51.060;-0.086;2024-02-26T10:15:31;3;3;
57884;PMS5003;43703;51.060;-0.086;2024-02-26T10:17:56;2;2;
57884;PMS5003;43703;51.060;-0.086;2024-02-26T10:20:21;7;7;
57884;PMS5003;43703;51.060;-0.086;2024-02-26T10:22:46;3;3;
57884;PMS5003;43703;51.060;-0.086;2024-02-26T10:25:11;4;3;
57884;PMS5003;43703;51.060;-0.086;2024-02-26T10:27:36;3;3;
57884;PMS5003;43703;51.060;-0.086;2024-02-26T10:30:02;3;3;
57884;PMS5003;43703;51.060;-0.086;2024-02-26T10:32:26;5;3;
57884;PMS5003;43703;51.060;-0.086;2024-02-26T10:34:55;6;6;
57884;PMS5003;43703;51.060;-0.086;2024-02-26T10:37:17;5;3;
57884;PMS5003;43703;51.060;-0.086;2024-02-26T10:39:46;2;2;
57884;PMS5003;43703;51.060;-0.086;2024-02-26T10:42:10;4;3;
57884;PMS5003;43703;51.060;-0.086;2024-02-26T10:44:33;3;3;
57884;PMS5003;43703;51.060;-0.086;2024-02-26T10:46:58;3;3;
57884;PMS5003;43703;51.060;-0.086;2024-02-26T10:49:23;5;5;
57884;PMS5003;43703;51.060;-0.086;2024-02-26T10:51:51;3;3;
57884;PMS5003;43703;51.060;-0.086;2024-02-26T10:54:15;3;3;
57884;PMS5003;43703;51.060;-0.086;2024-02-26T10:56:39;2;2;
57884;PMS5003;43703;51.060;-0.086;2024-02-26T10:59:05;2;1;
57884;PMS5003;43703;51.060;-0.086;2024-02-26T11:01:30;1;1;
57884;PMS5003;43703;51.060;-0.086;2024-02-26T11:03:55;2;1;
57884;PMS5003;43703;51.060;-0.086;2024-02-26T11:06:20;4;3;
57884;PMS5003;43703;51.060;-0.086;2024-02-26T11:08:45;1;1;
57884;PMS5003;43703;51.060;-0.086;2024-02-26T11:11:10;1;1;
57884;PMS5003;43703;51.060;-0.086;2024-02-26T11:13:35;8;8;
57884;PMS5003;43703;51.060;-0.086;2024-02-26T11:16:00;11;11;
57884;PMS5003;43703;51.060;-0.086;2024-02-26T11:18:26;9;8;
57884;PMS5003;43703;51.060;-0.086;2024-02-26T11:20:52;4;4;
57884;PMS5003;43703;51.060;-0.086;2024-02-26T11:23:16;7;7;
57884;PMS5003;43703;51.060;-0.086;2024-02-26T11:25:41;7;7;
57884;PMS5003;43703;51.060;-0.086;2024-02-26T11:28:07;1;1;
57884;PMS5003;43703;51.060;-0.086;2024-02-26T11:30:32;8;6;
57884;PMS5003;43703;51.060;-0.086;2024-02-26T11:32:56;1;1;
57884;PMS5003;43703;51.060;-0.086;2024-02-26T11:35:21;27;25;
57884;PMS5003;43703;51.060;-0.086;2024-02-26T11:40:12;33;32;
57884;PMS5003;43703;51.060;-0.086;2024-02-26T11:42:42;4;4;
57884;PMS5003;43703;51.060;-0.086;2024-02-26T11:45:03;13;11;
57884;PMS5003;43703;51.060;-0.086;2024-02-26T11:47:28;2;2;
57884;PMS5003;43703;51.060;-0.086;2024-02-26T11:49:53;7;7;
57884;PMS5003;43703;51.060;-0.086;2024-02-26T11:52:18;14;14;
57884;PMS5003;43703;51.060;-0.086;2024-02-26T11:54:44;12;8;
57884;PMS5003;43703;51.060;-0.086;2024-02-26T11:59:37;1;1;
57884;PMS5003;43703;51.060;-0.086;2024-02-26T12:02:00;2;2;
57884;PMS5003;43703;51.060;-0.086;2024-02-26T12:04:26;2;2;
57884;PMS5003;43703;51.060;-0.086;2024-02-26T12:06:52;2;2;
57884;PMS5003;43703;51.060;-0.086;2024-02-26T12:11:43;1;1;
57884;PMS5003;43703;51.060;-0.086;2024-02-26T12:14:09;5;5;
57884;PMS5003;43703;51.060;-0.086;2024-02-26T12:16:35;6;5;
57884;PMS5003;43703;51.060;-0.086;2024-02-26T12:18:58;14;14;
57884;PMS5003;43703;51.060;-0.086;2024-02-26T12:21:24;23;23;
57884;PMS5003;43703;51.060;-0.086;2024-02-26T12:23:49;5;5;
57884;PMS5003;43703;51.060;-0.086;2024-02-26T12:26:15;17;16;
57884;PMS5003;43703;51.060;-0.086;2024-02-26T12:28:40;22;22;
57884;PMS5003;43703;51.060;-0.086;2024-02-26T12:31:06;10;10;
57884;PMS5003;43703;51.060;-0.086;2024-02-26T12:33:31;9;9;
57884;PMS5003;43703;51.060;-0.086;2024-02-26T12:35:56;7;6;
57884;PMS5003;43703;51.060;-0.086;2024-02-26T12:38:21;13;11;
57884;PMS5003;43703;51.060;-0.086;2024-02-26T12:40:46;5;5;
57884;PMS5003;43703;51.060;-0.086;2024-02-26T12:43:12;4;4;
57884;PMS5003;43703;51.060;-0.086;2024-02-26T12:45:38;9;8;
57884;PMS5003;43703;51.060;-0.086;2024-02-26T12:48:02;2;2;
57884;PMS5003;43703;51.060;-0.086;2024-02-26T12:50:27;8;8;
57884;PMS5003;43703;51.060;-0.086;2024-02-26T12:52:53;1;0;
57884;PMS5003;43703;51.060;-0.086;2024-02-26T12:55:19;2;2;
57884;PMS5003;43703;51.060;-0.086;2024-02-26T12:57:43;5;5;
57884;PMS5003;43703;51.060;-0.086;2024-02-26T13:00:11;6;6;
57884;PMS5003;43703;51.060;-0.086;2024-02-26T13:02:35;6;6;
57884;PMS5003;43703;51.060;-0.086;2024-02-26T13:05:01;5;4;
57884;PMS5003;43703;51.060;-0.086;2024-02-26T13:07:27;3;3;
57884;PMS5003;43703;51.060;-0.086;2024-02-26T13:09:52;7;7;
57884;PMS5003;43703;51.060;-0.086;2024-02-26T13:12:17;5;5;
57884;PMS5003;43703;51.060;-0.086;2024-02-26T13:14:43;5;5;
57884;PMS5003;43703;51.060;-0.086;2024-02-26T13:17:09;5;4;
57884;PMS5003;43703;51.060;-0.086;2024-02-26T13:19:35;3;3;
57884;PMS5003;43703;51.060;-0.086;2024-02-26T13:22:03;13;11;
57884;PMS5003;43703;51.060;-0.086;2024-02-26T13:24:25;3;3;
57884;PMS5003;43703;51.060;-0.086;2024-02-26T13:26:54;4;3;
57884;PMS5003;43703;51.060;-0.086;2024-02-26T13:29:17;2;2;
57884;PMS5003;43703;51.060;-0.086;2024-02-26T13:31:42;3;2;
57884;PMS5003;43703;51.060;-0.086;2024-02-26T13:34:08;1;1;
57884;PMS5003;43703;51.060;-0.086;2024-02-26T13:36:34;3;1;
57884;PMS5003;43703;51.060;-0.086;2024-02-26T13:38:59;2;2;
57884;PMS5003;43703;51.060;-0.086;2024-02-26T13:41:24;4;4;
57884;PMS5003;43703;51.060;-0.086;2024-02-26T13:43:50;4;2;
57884;PMS5003;43703;51.060;-0.086;2024-02-26T13:46:15;2;2;
57884;PMS5003;43703;51.060;-0.086;2024-02-26T13:48:41;4;4;
57884;PMS5003;43703;51.060;-0.086;2024-02-26T13:51:07;2;2;
57884;PMS5003;43703;51.060;-0.086;2024-02-26T13:53:32;3;3;
57884;PMS5003;43703;51.060;-0.086;2024-02-26T13:55:58;1;1;
57884;PMS5003;43703;51.060;-0.086;2024-02-26T13:58:24;2;1;
57884;PMS5003;43703;51.060;-0.086;2024-02-26T14:00:50;2;2;
57884;PMS5003;43703;51.060;-0.086;2024-02-26T14:03:15;4;4;
57884;PMS5003;43703;51.060;-0.086;2024-02-26T14:05:41;1;1;
57884;PMS5003;43703;51.060;-0.086;2024-02-26T14:08:07;4;4;
57884;PMS5003;43703;51.060;-0.086;2024-02-26T14:10:33;1;1;
57884;PMS5003;43703;51.060;-0.086;2024-02-26T14:12:59;2;2;
57884;PMS5003;43703;51.060;-0.086;2024-02-26T14:15:25;2;2;
57884;PMS5003;43703;51.060;-0.086;2024-02-26T14:17:51;2;2;
57884;PMS5003;43703;51.060;-0.086;2024-02-26T14:20:15;18;17;
57884;PMS5003;43703;51.060;-0.086;2024-02-26T14:22:40;4;4;
57884;PMS5003;43703;51.060;-0.086;2024-02-26T14:25:07;3;3;
57884;PMS5003;43703;51.060;-0.086;2024-02-26T14:27:32;18;13;
57884;PMS5003;43703;51.060;-0.086;2024-02-26T14:29:57;16;16;
57884;PMS5003;43703;51.060;-0.086;2024-02-26T14:32:23;6;5;
57884;PMS5003;43703;51.060;-0.086;2024-02-26T14:34:48;3;3;
57884;PMS5003;43703;51.060;-0.086;2024-02-26T14:37:14;0;0;
57884;PMS5003;43703;51.060;-0.086;2024-02-26T14:39:39;5;4;
57884;PMS5003;43703;51.060;-0.086;2024-02-26T14:42:04;2;2;
57884;PMS5003;43703;51.060;-0.086;2024-02-26T14:44:30;2;2;
57884;PMS5003;43703;51.060;-0.086;2024-02-26T14:46:56;2;2;
57884;PMS5003;43703;51.060;-0.086;2024-02-26T14:49:21;3;2;
57884;PMS5003;43703;51.060;-0.086;2024-02-26T14:51:46;2;2;
57884;PMS5003;43703;51.060;-0.086;2024-02-26T14:54:11;3;3;
57884;PMS5003;43703;51.060;-0.086;2024-02-26T14:56:37;5;2;
57884;PMS5003;43703;51.060;-0.086;2024-02-26T14:59:02;4;2;
57884;PMS5003;43703;51.060;-0.086;2024-02-26T15:01:27;3;3;
57884;PMS5003;43703;51.060;-0.086;2024-02-26T15:03:52;6;5;
57884;PMS5003;43703;51.060;-0.086;2024-02-26T15:06:18;2;2;
57884;PMS5003;43703;51.060;-0.086;2024-02-26T15:08:43;2;2;
57884;PMS5003;43703;51.060;-0.086;2024-02-26T15:11:08;6;4;
57884;PMS5003;43703;51.060;-0.086;2024-02-26T15:13:35;3;3;
57884;PMS5003;43703;51.060;-0.086;2024-02-26T15:16:00;4;3;
57884;PMS5003;43703;51.060;-0.086;2024-02-26T15:18:26;2;2;
57884;PMS5003;43703;51.060;-0.086;2024-02-26T15:20:51;3;3;
57884;PMS5003;43703;51.060;-0.086;2024-02-26T15:23:17;3;3;
57884;PMS5003;43703;51.060;-0.086;2024-02-26T15:25:43;0;0;
57884;PMS5003;43703;51.060;-0.086;2024-02-26T15:28:09;3;3;
57884;PMS5003;43703;51.060;-0.086;2024-02-26T15:30:34;1;1;
57884;PMS5003;43703;51.060;-0.086;2024-02-26T15:33:00;3;2;
57884;PMS5003;43703;51.060;-0.086;2024-02-26T15:35:26;2;2;
57884;PMS5003;43703;51.060;-0.086;2024-02-26T15:37:52;2;2;
57884;PMS5003;43703;51.060;-0.086;2024-02-26T15:40:18;2;2;
57884;PMS5003;43703;51.060;-0.086;2024-02-26T15:42:43;3;2;
57884;PMS5003;43703;51.060;-0.086;2024-02-26T15:45:09;3;2;
57884;PMS5003;43703;51.060;-0.086;2024-02-26T15:47:35;2;2;
57884;PMS5003;43703;51.060;-0.086;2024-02-26T15:50:00;1;1;
57884;PMS5003;43703;51.060;-0.086;2024-02-26T15:52:25;4;4;
57884;PMS5003;43703;51.060;-0.086;2024-02-26T15:54:50;6;5;
57884;PMS5003;43703;51.060;-0.086;2024-02-26T15:57:15;6;6;
57884;PMS5003;43703;51.060;-0.086;2024-02-26T15:59:41;5;4;
57884;PMS5003;43703;51.060;-0.086;2024-02-26T16:02:07;2;2;
57884;PMS5003;43703;51.060;-0.086;2024-02-26T16:04:32;3;2;
57884;PMS5003;43703;51.060;-0.086;2024-02-26T16:06:58;4;2;
57884;PMS5003;43703;51.060;-0.086;2024-02-26T16:09:23;2;2;
57884;PMS5003;43703;51.060;-0.086;2024-02-26T16:11:47;2;2;
57884;PMS5003;43703;51.060;-0.086;2024-02-26T16:14:16;2;2;